TFM - Tactical Decision Aid
ID: Runway Winds: CIG/VIS Threshold:

KEWR - Newark Intl, NJ, US

Updated at: 1028 UTC 15 Jul 2020
Latest TAF at: 1007 UTC 15 Jul 2020

TAF Board

Time0951Z 15/11Z 15/12Z 15/13Z 15/14Z 15/15Z 15/16Z 15/17Z 15/18Z 15/19Z 15/20Z 15/21Z 15/22Z 15/23Z>>
Type OBS PRVL PRVL PRVL PRVL PRVL PRVL PRVL PRVL PRVL PRVL PRVL PRVL PRVL
VIS 10 >6 >6 >6 >6 >6 >6 >6 >6 >6 >6 >6 >6 >6
CIG 250 -- 35 35 35 35 35 50 50 50 50 -- -- --
Cover BKN SCT BKN BKN BKN BKN BKN BKN BKN BKN BKN SCT SCT SCT
FltCat VFR VFR VFR VFR VFR VFR VFR VFR VFR VFR VFR VFR VFR VFR
WX -- -- -- -- -- -- -- -- -- -- -- -- -- --
WDir 20 30 30 30 30 30 30 90 90 90 90 130 130 130
WSpd 7 5 6 6 6 6 6 7 7 7 7 10 10 10
WGst -- -- -- -- -- -- -- -- -- -- -- -- -- --

TDA Impact Legend

  None Marginal Slight Moderate High
Visibility (sm) >5 3≤X≤5 1≤X<3 0.5≤X<1 <0.5
Ceiling (100 ft) >30 10≤X≤30 4≤X<10 2≤X<4 <2
Wind Speed (kt) <15 15≤X<25 25≤X<30 ≥30
Wind Gust (kt) <15 15≤X<25 25≤X<35 ≥35
Weather No Wx Reported VCTS -TS,-FZRA TS,FZRA +TS,+FZRA
TAF
KEWR 151007Z 1510/1612 03005KT P6SM SCT025 SCT070
  FM151200 03006KT P6SM FEW025 BKN035
  FM151700 09007KT P6SM FEW025 BKN050
  FM152100 13010KT P6SM SCT050 SCT250
  FM160100 15006KT P6SM SCT020 SCT050


METAR
KEWR 150951Z 02007KT 10SM FEW015 FEW180 BKN250 21/18 A3013 RMK AO2 SLP201 T02060178
KEWR 150851Z 01009KT 10SM FEW015 SCT250 22/18 A3011 RMK AO2 SLP194 T02170178 53016
KEWR 150751Z 01007KT 10SM SCT250 22/18 A3009 RMK AO2 SLP188 T02220178

Radar Display
Forecast Discussion